sensor_id;sensor_type;location;lat;lon;timestamp;P1;durP1;ratioP1;P2;durP2;ratioP2
49962;SDS011;36180;57.678;11.910;2022-09-09T00:00:06;2.13;;;1.27;;
49962;SDS011;36180;57.678;11.910;2022-09-09T00:02:39;3.58;;;1.55;;
49962;SDS011;36180;57.678;11.910;2022-09-09T00:05:12;1.67;;;1.00;;
49962;SDS011;36180;57.678;11.910;2022-09-09T00:07:45;1.23;;;0.90;;
49962;SDS011;36180;57.678;11.910;2022-09-09T00:10:16;2.47;;;1.27;;
49962;SDS011;36180;57.678;11.910;2022-09-09T00:12:48;1.85;;;0.93;;
49962;SDS011;36180;57.678;11.910;2022-09-09T00:15:22;2.25;;;1.20;;
49962;SDS011;36180;57.678;11.910;2022-09-09T00:17:51;1.10;;;0.98;;
49962;SDS011;36180;57.678;11.910;2022-09-09T00:20:24;1.10;;;0.93;;
49962;SDS011;36180;57.678;11.910;2022-09-09T00:23:00;2.03;;;1.13;;
49962;SDS011;36180;57.678;11.910;2022-09-09T00:25:32;1.02;;;0.93;;
49962;SDS011;36180;57.678;11.910;2022-09-09T00:28:04;1.48;;;0.98;;
49962;SDS011;36180;57.678;11.910;2022-09-09T00:30:40;3.20;;;1.00;;
49962;SDS011;36180;57.678;11.910;2022-09-09T00:33:09;1.45;;;0.93;;
49962;SDS011;36180;57.678;11.910;2022-09-09T00:35:42;1.80;;;1.13;;
49962;SDS011;36180;57.678;11.910;2022-09-09T00:38:12;1.55;;;1.08;;
49962;SDS011;36180;57.678;11.910;2022-09-09T00:40:43;1.45;;;1.00;;
49962;SDS011;36180;57.678;11.910;2022-09-09T00:43:21;1.77;;;1.15;;
49962;SDS011;36180;57.678;11.910;2022-09-09T00:45:56;2.92;;;1.20;;
49962;SDS011;36180;57.678;11.910;2022-09-09T00:48:57;2.03;;;1.15;;
49962;SDS011;36180;57.678;11.910;2022-09-09T00:51:34;2.20;;;1.20;;
49962;SDS011;36180;57.678;11.910;2022-09-09T00:54:14;1.63;;;1.20;;
49962;SDS011;36180;57.678;11.910;2022-09-09T00:56:53;1.20;;;1.00;;
49962;SDS011;36180;57.678;11.910;2022-09-09T00:59:28;1.15;;;1.00;;
49962;SDS011;36180;57.678;11.910;2022-09-09T01:02:02;2.75;;;1.20;;
49962;SDS011;36180;57.678;11.910;2022-09-09T01:04:32;1.55;;;1.20;;
49962;SDS011;36180;57.678;11.910;2022-09-09T01:07:03;2.38;;;0.88;;
49962;SDS011;36180;57.678;11.910;2022-09-09T01:09:38;1.13;;;1.02;;
49962;SDS011;36180;57.678;11.910;2022-09-09T01:12:12;1.30;;;1.13;;
49962;SDS011;36180;57.678;11.910;2022-09-09T01:14:45;1.88;;;1.08;;
49962;SDS011;36180;57.678;11.910;2022-09-09T01:17:17;2.95;;;1.15;;
49962;SDS011;36180;57.678;11.910;2022-09-09T01:19:59;1.20;;;1.10;;
49962;SDS011;36180;57.678;11.910;2022-09-09T01:22:39;2.95;;;1.30;;
49962;SDS011;36180;57.678;11.910;2022-09-09T01:25:18;0.98;;;0.90;;
49962;SDS011;36180;57.678;11.910;2022-09-09T01:28:08;1.13;;;1.00;;
49962;SDS011;36180;57.678;11.910;2022-09-09T01:30:38;1.10;;;0.90;;
49962;SDS011;36180;57.678;11.910;2022-09-09T01:33:09;1.92;;;1.20;;
49962;SDS011;36180;57.678;11.910;2022-09-09T01:35:42;2.45;;;1.13;;
49962;SDS011;36180;57.678;11.910;2022-09-09T01:38:14;1.20;;;1.00;;
49962;SDS011;36180;57.678;11.910;2022-09-09T01:40:43;1.98;;;1.08;;
49962;SDS011;36180;57.678;11.910;2022-09-09T01:43:11;1.10;;;1.02;;
49962;SDS011;36180;57.678;11.910;2022-09-09T01:45:39;1.67;;;1.40;;
49962;SDS011;36180;57.678;11.910;2022-09-09T01:48:07;2.10;;;1.25;;
49962;SDS011;36180;57.678;11.910;2022-09-09T01:50:50;2.20;;;1.30;;
49962;SDS011;36180;57.678;11.910;2022-09-09T01:53:18;3.33;;;1.17;;
49962;SDS011;36180;57.678;11.910;2022-09-09T01:55:47;1.73;;;1.27;;
49962;SDS011;36180;57.678;11.910;2022-09-09T01:58:24;3.10;;;1.17;;
49962;SDS011;36180;57.678;11.910;2022-09-09T02:01:01;1.77;;;1.30;;
49962;SDS011;36180;57.678;11.910;2022-09-09T02:03:32;1.20;;;1.00;;
49962;SDS011;36180;57.678;11.910;2022-09-09T02:06:12;1.85;;;1.30;;
49962;SDS011;36180;57.678;11.910;2022-09-09T02:08:45;1.48;;;1.20;;
49962;SDS011;36180;57.678;11.910;2022-09-09T02:11:14;1.50;;;1.00;;
49962;SDS011;36180;57.678;11.910;2022-09-09T02:13:51;2.45;;;1.23;;
49962;SDS011;36180;57.678;11.910;2022-09-09T02:16:21;3.30;;;1.40;;
49962;SDS011;36180;57.678;11.910;2022-09-09T02:18:51;3.35;;;1.27;;
49962;SDS011;36180;57.678;11.910;2022-09-09T02:21:28;2.72;;;1.20;;
49962;SDS011;36180;57.678;11.910;2022-09-09T02:23:57;3.70;;;1.40;;
49962;SDS011;36180;57.678;11.910;2022-09-09T02:26:28;3.60;;;1.30;;
49962;SDS011;36180;57.678;11.910;2022-09-09T02:29:04;1.50;;;1.30;;
49962;SDS011;36180;57.678;11.910;2022-09-09T02:31:34;1.88;;;1.13;;
49962;SDS011;36180;57.678;11.910;2022-09-09T02:34:07;3.33;;;1.38;;
49962;SDS011;36180;57.678;11.910;2022-09-09T02:36:36;4.40;;;1.50;;
49962;SDS011;36180;57.678;11.910;2022-09-09T02:39:05;2.35;;;1.20;;
49962;SDS011;36180;57.678;11.910;2022-09-09T02:41:36;3.22;;;1.48;;
49962;SDS011;36180;57.678;11.910;2022-09-09T02:44:08;1.83;;;1.23;;
49962;SDS011;36180;57.678;11.910;2022-09-09T02:46:40;4.10;;;1.15;;
49962;SDS011;36180;57.678;11.910;2022-09-09T02:49:16;1.85;;;1.35;;
49962;SDS011;36180;57.678;11.910;2022-09-09T02:51:47;1.70;;;1.20;;
49962;SDS011;36180;57.678;11.910;2022-09-09T02:54:21;2.00;;;1.50;;
49962;SDS011;36180;57.678;11.910;2022-09-09T02:56:52;4.65;;;2.00;;
49962;SDS011;36180;57.678;11.910;2022-09-09T02:59:29;3.17;;;1.58;;
49962;SDS011;36180;57.678;11.910;2022-09-09T03:01:56;1.30;;;1.20;;
49962;SDS011;36180;57.678;11.910;2022-09-09T03:04:23;2.75;;;1.50;;
49962;SDS011;36180;57.678;11.910;2022-09-09T03:06:50;2.17;;;1.10;;
49962;SDS011;36180;57.678;11.910;2022-09-09T03:09:19;1.35;;;1.20;;
49962;SDS011;36180;57.678;11.910;2022-09-09T03:11:48;4.47;;;1.30;;
49962;SDS011;36180;57.678;11.910;2022-09-09T03:14:16;2.72;;;1.48;;
49962;SDS011;36180;57.678;11.910;2022-09-09T03:16:47;3.08;;;1.30;;
49962;SDS011;36180;57.678;11.910;2022-09-09T03:19:16;1.30;;;1.20;;
49962;SDS011;36180;57.678;11.910;2022-09-09T03:21:43;1.35;;;1.25;;
49962;SDS011;36180;57.678;11.910;2022-09-09T03:24:10;2.50;;;1.27;;
49962;SDS011;36180;57.678;11.910;2022-09-09T03:26:37;2.28;;;1.33;;
49962;SDS011;36180;57.678;11.910;2022-09-09T03:29:08;2.53;;;1.30;;
49962;SDS011;36180;57.678;11.910;2022-09-09T03:31:35;3.70;;;1.40;;
49962;SDS011;36180;57.678;11.910;2022-09-09T03:34:04;3.15;;;1.52;;
49962;SDS011;36180;57.678;11.910;2022-09-09T03:36:33;4.97;;;1.67;;
49962;SDS011;36180;57.678;11.910;2022-09-09T03:39:00;2.03;;;1.38;;
49962;SDS011;36180;57.678;11.910;2022-09-09T03:41:29;3.20;;;1.70;;
49962;SDS011;36180;57.678;11.910;2022-09-09T03:43:58;2.35;;;1.33;;
49962;SDS011;36180;57.678;11.910;2022-09-09T03:46:27;2.63;;;1.42;;
49962;SDS011;36180;57.678;11.910;2022-09-09T03:48:54;4.38;;;1.40;;
49962;SDS011;36180;57.678;11.910;2022-09-09T03:51:23;1.50;;;1.40;;
49962;SDS011;36180;57.678;11.910;2022-09-09T03:53:50;2.00;;;1.40;;
49962;SDS011;36180;57.678;11.910;2022-09-09T03:56:19;2.60;;;1.40;;
49962;SDS011;36180;57.678;11.910;2022-09-09T03:58:47;3.95;;;1.70;;
49962;SDS011;36180;57.678;11.910;2022-09-09T04:01:14;3.25;;;1.48;;
49962;SDS011;36180;57.678;11.910;2022-09-09T04:03:43;1.85;;;1.73;;
49962;SDS011;36180;57.678;11.910;2022-09-09T04:06:11;1.60;;;1.50;;
49962;SDS011;36180;57.678;11.910;2022-09-09T04:08:43;3.17;;;1.48;;
49962;SDS011;36180;57.678;11.910;2022-09-09T04:11:13;2.42;;;1.40;;
49962;SDS011;36180;57.678;11.910;2022-09-09T04:13:41;2.30;;;1.48;;
49962;SDS011;36180;57.678;11.910;2022-09-09T04:16:11;1.75;;;1.27;;
49962;SDS011;36180;57.678;11.910;2022-09-09T04:18:40;3.75;;;1.73;;
49962;SDS011;36180;57.678;11.910;2022-09-09T04:21:08;5.80;;;1.90;;
49962;SDS011;36180;57.678;11.910;2022-09-09T04:23:36;3.75;;;1.60;;
49962;SDS011;36180;57.678;11.910;2022-09-09T04:26:05;3.30;;;1.58;;
49962;SDS011;36180;57.678;11.910;2022-09-09T04:28:34;3.70;;;1.63;;
49962;SDS011;36180;57.678;11.910;2022-09-09T04:31:06;2.10;;;1.40;;
49962;SDS011;36180;57.678;11.910;2022-09-09T04:33:35;4.10;;;1.60;;
49962;SDS011;36180;57.678;11.910;2022-09-09T04:36:03;2.40;;;1.30;;
49962;SDS011;36180;57.678;11.910;2022-09-09T04:38:31;3.50;;;1.58;;
49962;SDS011;36180;57.678;11.910;2022-09-09T04:40:59;5.30;;;1.58;;
49962;SDS011;36180;57.678;11.910;2022-09-09T04:43:28;3.10;;;1.63;;
49962;SDS011;36180;57.678;11.910;2022-09-09T04:45:57;5.07;;;1.58;;
49962;SDS011;36180;57.678;11.910;2022-09-09T04:48:24;1.30;;;1.20;;
49962;SDS011;36180;57.678;11.910;2022-09-09T04:50:56;3.55;;;1.70;;
49962;SDS011;36180;57.678;11.910;2022-09-09T04:53:23;1.75;;;1.40;;
49962;SDS011;36180;57.678;11.910;2022-09-09T04:55:52;2.28;;;1.70;;
49962;SDS011;36180;57.678;11.910;2022-09-09T04:58:20;3.65;;;1.55;;
49962;SDS011;36180;57.678;11.910;2022-09-09T05:00:50;3.15;;;1.45;;
49962;SDS011;36180;57.678;11.910;2022-09-09T05:03:18;3.38;;;1.45;;
49962;SDS011;36180;57.678;11.910;2022-09-09T05:05:45;4.63;;;1.50;;
49962;SDS011;36180;57.678;11.910;2022-09-09T05:08:13;3.95;;;1.77;;
49962;SDS011;36180;57.678;11.910;2022-09-09T05:10:40;2.63;;;1.63;;
49962;SDS011;36180;57.678;11.910;2022-09-09T05:13:08;3.85;;;1.83;;
49962;SDS011;36180;57.678;11.910;2022-09-09T05:15:35;2.08;;;1.42;;
49962;SDS011;36180;57.678;11.910;2022-09-09T05:18:04;2.50;;;1.60;;
49962;SDS011;36180;57.678;11.910;2022-09-09T05:20:31;1.67;;;1.58;;
49962;SDS011;36180;57.678;11.910;2022-09-09T05:23:00;3.05;;;2.50;;
49962;SDS011;36180;57.678;11.910;2022-09-09T05:25:29;3.90;;;1.70;;
49962;SDS011;36180;57.678;11.910;2022-09-09T05:27:57;2.85;;;1.50;;
49962;SDS011;36180;57.678;11.910;2022-09-09T05:30:25;1.65;;;1.42;;
49962;SDS011;36180;57.678;11.910;2022-09-09T05:32:55;3.53;;;1.65;;
49962;SDS011;36180;57.678;11.910;2022-09-09T05:35:23;4.97;;;1.50;;
49962;SDS011;36180;57.678;11.910;2022-09-09T05:37:50;4.10;;;1.70;;
49962;SDS011;36180;57.678;11.910;2022-09-09T05:40:18;2.10;;;1.65;;
49962;SDS011;36180;57.678;11.910;2022-09-09T05:42:47;6.00;;;2.00;;
49962;SDS011;36180;57.678;11.910;2022-09-09T05:45:14;4.15;;;2.10;;
49962;SDS011;36180;57.678;11.910;2022-09-09T05:47:41;2.75;;;1.70;;
49962;SDS011;36180;57.678;11.910;2022-09-09T05:50:12;4.07;;;1.63;;
49962;SDS011;36180;57.678;11.910;2022-09-09T05:52:41;3.55;;;1.70;;
49962;SDS011;36180;57.678;11.910;2022-09-09T05:55:10;2.63;;;1.55;;
49962;SDS011;36180;57.678;11.910;2022-09-09T05:57:37;2.70;;;1.63;;
49962;SDS011;36180;57.678;11.910;2022-09-09T06:00:05;4.03;;;1.75;;
49962;SDS011;36180;57.678;11.910;2022-09-09T06:02:39;5.72;;;1.65;;
49962;SDS011;36180;57.678;11.910;2022-09-09T06:05:08;4.55;;;1.92;;
49962;SDS011;36180;57.678;11.910;2022-09-09T06:07:36;4.10;;;1.80;;
49962;SDS011;36180;57.678;11.910;2022-09-09T06:10:09;3.40;;;1.60;;
49962;SDS011;36180;57.678;11.910;2022-09-09T06:12:39;2.15;;;1.88;;
49962;SDS011;36180;57.678;11.910;2022-09-09T06:15:06;3.63;;;1.55;;
49962;SDS011;36180;57.678;11.910;2022-09-09T06:17:34;3.50;;;1.67;;
49962;SDS011;36180;57.678;11.910;2022-09-09T06:20:02;3.63;;;2.10;;
49962;SDS011;36180;57.678;11.910;2022-09-09T06:22:31;3.60;;;2.00;;
49962;SDS011;36180;57.678;11.910;2022-09-09T06:25:00;5.30;;;1.63;;
49962;SDS011;36180;57.678;11.910;2022-09-09T06:27:28;3.28;;;2.17;;
49962;SDS011;36180;57.678;11.910;2022-09-09T06:29:56;4.03;;;1.92;;
49962;SDS011;36180;57.678;11.910;2022-09-09T06:32:23;3.28;;;2.00;;
49962;SDS011;36180;57.678;11.910;2022-09-09T06:34:53;3.67;;;1.98;;
49962;SDS011;36180;57.678;11.910;2022-09-09T06:37:21;3.85;;;2.47;;
49962;SDS011;36180;57.678;11.910;2022-09-09T06:39:49;3.05;;;1.90;;
49962;SDS011;36180;57.678;11.910;2022-09-09T06:42:16;3.95;;;2.05;;
49962;SDS011;36180;57.678;11.910;2022-09-09T06:45:04;8.93;;;2.35;;
49962;SDS011;36180;57.678;11.910;2022-09-09T06:47:37;5.72;;;2.42;;
49962;SDS011;36180;57.678;11.910;2022-09-09T06:50:05;4.18;;;2.42;;
49962;SDS011;36180;57.678;11.910;2022-09-09T06:52:34;3.85;;;2.60;;
49962;SDS011;36180;57.678;11.910;2022-09-09T06:55:02;7.05;;;2.75;;
49962;SDS011;36180;57.678;11.910;2022-09-09T06:57:31;5.65;;;2.33;;
49962;SDS011;36180;57.678;11.910;2022-09-09T06:59:58;5.68;;;1.90;;
49962;SDS011;36180;57.678;11.910;2022-09-09T07:02:26;5.50;;;3.03;;
49962;SDS011;36180;57.678;11.910;2022-09-09T07:04:56;4.63;;;2.40;;
49962;SDS011;36180;57.678;11.910;2022-09-09T07:07:23;7.15;;;2.80;;
49962;SDS011;36180;57.678;11.910;2022-09-09T07:09:51;4.03;;;2.33;;
49962;SDS011;36180;57.678;11.910;2022-09-09T07:12:18;2.58;;;2.38;;
49962;SDS011;36180;57.678;11.910;2022-09-09T07:14:52;3.67;;;2.35;;
49962;SDS011;36180;57.678;11.910;2022-09-09T07:17:20;5.63;;;2.90;;
49962;SDS011;36180;57.678;11.910;2022-09-09T07:19:48;7.25;;;2.60;;
49962;SDS011;36180;57.678;11.910;2022-09-09T07:22:16;7.10;;;2.70;;
49962;SDS011;36180;57.678;11.910;2022-09-09T07:24:45;6.57;;;2.28;;
49962;SDS011;36180;57.678;11.910;2022-09-09T07:27:14;5.55;;;2.50;;
49962;SDS011;36180;57.678;11.910;2022-09-09T07:29:41;3.47;;;2.15;;
49962;SDS011;36180;57.678;11.910;2022-09-09T07:32:12;5.15;;;2.40;;
49962;SDS011;36180;57.678;11.910;2022-09-09T07:34:38;4.57;;;2.40;;
49962;SDS011;36180;57.678;11.910;2022-09-09T07:37:07;4.10;;;2.65;;
49962;SDS011;36180;57.678;11.910;2022-09-09T07:39:38;5.07;;;2.40;;
49962;SDS011;36180;57.678;11.910;2022-09-09T07:42:06;6.20;;;2.10;;
49962;SDS011;36180;57.678;11.910;2022-09-09T07:44:35;4.53;;;1.95;;
49962;SDS011;36180;57.678;11.910;2022-09-09T07:47:07;4.05;;;1.77;;
49962;SDS011;36180;57.678;11.910;2022-09-09T07:49:48;4.22;;;2.15;;
49962;SDS011;36180;57.678;11.910;2022-09-09T07:52:21;6.78;;;1.80;;
49962;SDS011;36180;57.678;11.910;2022-09-09T07:54:53;7.78;;;2.63;;
49962;SDS011;36180;57.678;11.910;2022-09-09T07:57:22;4.22;;;2.10;;
49962;SDS011;36180;57.678;11.910;2022-09-09T07:59:51;6.47;;;2.00;;
49962;SDS011;36180;57.678;11.910;2022-09-09T08:02:18;3.97;;;1.80;;
49962;SDS011;36180;57.678;11.910;2022-09-09T08:04:46;4.65;;;1.73;;
49962;SDS011;36180;57.678;11.910;2022-09-09T08:07:15;5.57;;;1.98;;
49962;SDS011;36180;57.678;11.910;2022-09-09T08:09:49;6.10;;;2.33;;
49962;SDS011;36180;57.678;11.910;2022-09-09T08:12:20;5.57;;;2.30;;
49962;SDS011;36180;57.678;11.910;2022-09-09T08:14:47;3.28;;;1.60;;
49962;SDS011;36180;57.678;11.910;2022-09-09T08:17:16;3.85;;;1.90;;
49962;SDS011;36180;57.678;11.910;2022-09-09T08:19:43;7.10;;;2.30;;
49962;SDS011;36180;57.678;11.910;2022-09-09T08:22:15;3.63;;;2.10;;
49962;SDS011;36180;57.678;11.910;2022-09-09T08:24:43;6.72;;;2.03;;
49962;SDS011;36180;57.678;11.910;2022-09-09T08:27:12;2.67;;;1.60;;
49962;SDS011;36180;57.678;11.910;2022-09-09T08:29:39;5.35;;;2.00;;
49962;SDS011;36180;57.678;11.910;2022-09-09T08:32:06;3.20;;;2.13;;
49962;SDS011;36180;57.678;11.910;2022-09-09T08:34:35;5.20;;;1.90;;
49962;SDS011;36180;57.678;11.910;2022-09-09T08:37:07;4.60;;;2.15;;
49962;SDS011;36180;57.678;11.910;2022-09-09T08:39:37;3.55;;;1.77;;
49962;SDS011;36180;57.678;11.910;2022-09-09T08:42:08;7.47;;;2.63;;
49962;SDS011;36180;57.678;11.910;2022-09-09T08:45:03;6.50;;;2.05;;
49962;SDS011;36180;57.678;11.910;2022-09-09T08:47:48;6.38;;;2.17;;
49962;SDS011;36180;57.678;11.910;2022-09-09T08:50:28;4.97;;;2.35;;
49962;SDS011;36180;57.678;11.910;2022-09-09T08:53:19;3.30;;;2.40;;
49962;SDS011;36180;57.678;11.910;2022-09-09T08:55:49;3.42;;;1.85;;
49962;SDS011;36180;57.678;11.910;2022-09-09T08:58:24;5.30;;;2.10;;
49962;SDS011;36180;57.678;11.910;2022-09-09T09:03:43;4.93;;;2.08;;
49962;SDS011;36180;57.678;11.910;2022-09-09T09:06:20;4.28;;;2.15;;
49962;SDS011;36180;57.678;11.910;2022-09-09T09:08:56;5.22;;;2.10;;
49962;SDS011;36180;57.678;11.910;2022-09-09T09:11:33;3.90;;;1.90;;
49962;SDS011;36180;57.678;11.910;2022-09-09T09:14:02;4.80;;;1.83;;
49962;SDS011;36180;57.678;11.910;2022-09-09T09:16:34;5.93;;;1.90;;
49962;SDS011;36180;57.678;11.910;2022-09-09T09:19:04;5.35;;;2.22;;
49962;SDS011;36180;57.678;11.910;2022-09-09T09:21:34;5.47;;;2.50;;
49962;SDS011;36180;57.678;11.910;2022-09-09T09:24:05;2.30;;;1.83;;
49962;SDS011;36180;57.678;11.910;2022-09-09T09:26:41;3.95;;;2.00;;
49962;SDS011;36180;57.678;11.910;2022-09-09T09:29:11;6.03;;;1.90;;
49962;SDS011;36180;57.678;11.910;2022-09-09T09:31:43;6.35;;;2.03;;
49962;SDS011;36180;57.678;11.910;2022-09-09T09:34:13;5.00;;;2.05;;
49962;SDS011;36180;57.678;11.910;2022-09-09T09:36:41;6.00;;;1.95;;
49962;SDS011;36180;57.678;11.910;2022-09-09T09:39:22;4.25;;;2.17;;
49962;SDS011;36180;57.678;11.910;2022-09-09T09:41:51;6.78;;;2.25;;
49962;SDS011;36180;57.678;11.910;2022-09-09T09:44:22;6.00;;;2.53;;
49962;SDS011;36180;57.678;11.910;2022-09-09T09:46:53;8.13;;;2.40;;
49962;SDS011;36180;57.678;11.910;2022-09-09T09:49:32;6.75;;;2.25;;
49962;SDS011;36180;57.678;11.910;2022-09-09T09:52:00;4.93;;;2.10;;
49962;SDS011;36180;57.678;11.910;2022-09-09T09:54:29;5.95;;;2.35;;
49962;SDS011;36180;57.678;11.910;2022-09-09T09:59:35;8.63;;;2.72;;
49962;SDS011;36180;57.678;11.910;2022-09-09T10:02:15;4.70;;;2.22;;
49962;SDS011;36180;57.678;11.910;2022-09-09T10:05:01;4.85;;;2.25;;
49962;SDS011;36180;57.678;11.910;2022-09-09T10:07:30;6.53;;;2.70;;
49962;SDS011;36180;57.678;11.910;2022-09-09T10:09:58;5.80;;;2.70;;
49962;SDS011;36180;57.678;11.910;2022-09-09T10:12:29;5.32;;;2.10;;
49962;SDS011;36180;57.678;11.910;2022-09-09T10:15:02;5.75;;;2.22;;
49962;SDS011;36180;57.678;11.910;2022-09-09T10:17:52;4.55;;;2.75;;
49962;SDS011;36180;57.678;11.910;2022-09-09T10:20:27;9.88;;;3.90;;
49962;SDS011;36180;57.678;11.910;2022-09-09T10:23:01;8.90;;;3.42;;
49962;SDS011;36180;57.678;11.910;2022-09-09T10:25:41;5.45;;;2.90;;
49962;SDS011;36180;57.678;11.910;2022-09-09T10:28:28;8.00;;;2.72;;
49962;SDS011;36180;57.678;11.910;2022-09-09T10:31:02;6.55;;;2.55;;
49962;SDS011;36180;57.678;11.910;2022-09-09T10:33:41;7.40;;;2.58;;
49962;SDS011;36180;57.678;11.910;2022-09-09T10:36:13;3.80;;;2.65;;
49962;SDS011;36180;57.678;11.910;2022-09-09T10:38:44;6.03;;;2.55;;
49962;SDS011;36180;57.678;11.910;2022-09-09T10:41:15;4.78;;;2.60;;
49962;SDS011;36180;57.678;11.910;2022-09-09T10:43:57;6.32;;;2.78;;
49962;SDS011;36180;57.678;11.910;2022-09-09T10:46:45;9.25;;;3.10;;
49962;SDS011;36180;57.678;11.910;2022-09-09T10:49:38;4.90;;;3.30;;
49962;SDS011;36180;57.678;11.910;2022-09-09T10:52:21;6.85;;;3.38;;
49962;SDS011;36180;57.678;11.910;2022-09-09T10:54:52;5.97;;;2.78;;
49962;SDS011;36180;57.678;11.910;2022-09-09T10:57:24;7.15;;;3.40;;
49962;SDS011;36180;57.678;11.910;2022-09-09T10:59:56;7.97;;;3.67;;
49962;SDS011;36180;57.678;11.910;2022-09-09T11:02:26;4.95;;;2.95;;
49962;SDS011;36180;57.678;11.910;2022-09-09T11:04:57;5.68;;;3.20;;
49962;SDS011;36180;57.678;11.910;2022-09-09T11:07:28;11.30;;;3.47;;
49962;SDS011;36180;57.678;11.910;2022-09-09T11:10:01;6.05;;;3.00;;
49962;SDS011;36180;57.678;11.910;2022-09-09T11:12:31;9.68;;;3.70;;
49962;SDS011;36180;57.678;11.910;2022-09-09T11:15:04;7.03;;;3.10;;
49962;SDS011;36180;57.678;11.910;2022-09-09T11:17:36;4.80;;;3.10;;
49962;SDS011;36180;57.678;11.910;2022-09-09T11:22:37;10.68;;;3.13;;
49962;SDS011;36180;57.678;11.910;2022-09-09T11:25:08;8.98;;;3.20;;
49962;SDS011;36180;57.678;11.910;2022-09-09T11:27:42;6.72;;;3.35;;
49962;SDS011;36180;57.678;11.910;2022-09-09T11:30:18;6.60;;;3.70;;
49962;SDS011;36180;57.678;11.910;2022-09-09T11:35:52;7.70;;;3.00;;
49962;SDS011;36180;57.678;11.910;2022-09-09T11:38:29;5.93;;;3.63;;
49962;SDS011;36180;57.678;11.910;2022-09-09T11:41:02;5.82;;;3.40;;
49962;SDS011;36180;57.678;11.910;2022-09-09T11:43:32;6.85;;;2.90;;
49962;SDS011;36180;57.678;11.910;2022-09-09T11:46:04;5.32;;;3.10;;
49962;SDS011;36180;57.678;11.910;2022-09-09T11:48:33;7.40;;;3.42;;
49962;SDS011;36180;57.678;11.910;2022-09-09T11:51:04;5.90;;;3.70;;
49962;SDS011;36180;57.678;11.910;2022-09-09T11:53:33;8.82;;;3.60;;
49962;SDS011;36180;57.678;11.910;2022-09-09T11:56:02;5.38;;;3.58;;
49962;SDS011;36180;57.678;11.910;2022-09-09T11:58:36;11.23;;;3.97;;
49962;SDS011;36180;57.678;11.910;2022-09-09T12:03:55;9.18;;;3.70;;
49962;SDS011;36180;57.678;11.910;2022-09-09T12:06:54;7.70;;;3.50;;
49962;SDS011;36180;57.678;11.910;2022-09-09T12:09:24;8.48;;;3.58;;
49962;SDS011;36180;57.678;11.910;2022-09-09T12:14:54;5.57;;;3.80;;
49962;SDS011;36180;57.678;11.910;2022-09-09T12:17:23;9.85;;;4.13;;
49962;SDS011;36180;57.678;11.910;2022-09-09T12:19:59;5.07;;;3.20;;
49962;SDS011;36180;57.678;11.910;2022-09-09T12:22:33;6.43;;;3.70;;
49962;SDS011;36180;57.678;11.910;2022-09-09T12:25:06;7.65;;;3.80;;
49962;SDS011;36180;57.678;11.910;2022-09-09T12:27:40;6.70;;;3.95;;
49962;SDS011;36180;57.678;11.910;2022-09-09T12:30:11;6.07;;;3.53;;
49962;SDS011;36180;57.678;11.910;2022-09-09T12:32:40;5.38;;;3.53;;
49962;SDS011;36180;57.678;11.910;2022-09-09T12:35:10;6.13;;;3.45;;
49962;SDS011;36180;57.678;11.910;2022-09-09T12:37:40;7.45;;;3.45;;
49962;SDS011;36180;57.678;11.910;2022-09-09T12:40:18;6.93;;;3.80;;
49962;SDS011;36180;57.678;11.910;2022-09-09T12:42:47;4.78;;;3.25;;
49962;SDS011;36180;57.678;11.910;2022-09-09T12:45:16;10.35;;;3.60;;
49962;SDS011;36180;57.678;11.910;2022-09-09T12:47:44;7.00;;;3.70;;
49962;SDS011;36180;57.678;11.910;2022-09-09T12:50:17;3.80;;;3.17;;
49962;SDS011;36180;57.678;11.910;2022-09-09T12:52:48;6.97;;;3.47;;
49962;SDS011;36180;57.678;11.910;2022-09-09T12:55:16;8.07;;;3.53;;
49962;SDS011;36180;57.678;11.910;2022-09-09T12:57:46;8.98;;;3.63;;
49962;SDS011;36180;57.678;11.910;2022-09-09T13:00:16;7.28;;;3.60;;
49962;SDS011;36180;57.678;11.910;2022-09-09T13:02:49;6.97;;;3.72;;
49962;SDS011;36180;57.678;11.910;2022-09-09T13:07:47;7.97;;;3.60;;
49962;SDS011;36180;57.678;11.910;2022-09-09T13:10:17;6.70;;;3.63;;
49962;SDS011;36180;57.678;11.910;2022-09-09T13:12:48;6.57;;;3.65;;
49962;SDS011;36180;57.678;11.910;2022-09-09T13:15:19;6.45;;;3.40;;
49962;SDS011;36180;57.678;11.910;2022-09-09T13:17:52;6.88;;;3.60;;
49962;SDS011;36180;57.678;11.910;2022-09-09T13:20:20;7.22;;;4.18;;
49962;SDS011;36180;57.678;11.910;2022-09-09T13:22:49;6.35;;;3.58;;
49962;SDS011;36180;57.678;11.910;2022-09-09T13:25:18;6.18;;;3.70;;
49962;SDS011;36180;57.678;11.910;2022-09-09T13:27:51;4.70;;;3.63;;
49962;SDS011;36180;57.678;11.910;2022-09-09T13:30:22;6.45;;;3.97;;
49962;SDS011;36180;57.678;11.910;2022-09-09T13:33:00;9.40;;;4.03;;
49962;SDS011;36180;57.678;11.910;2022-09-09T13:35:32;8.95;;;4.10;;
49962;SDS011;36180;57.678;11.910;2022-09-09T13:38:07;4.93;;;3.95;;
49962;SDS011;36180;57.678;11.910;2022-09-09T13:40:35;8.82;;;4.15;;
49962;SDS011;36180;57.678;11.910;2022-09-09T13:43:04;8.23;;;4.03;;
49962;SDS011;36180;57.678;11.910;2022-09-09T13:45:31;6.82;;;4.20;;
49962;SDS011;36180;57.678;11.910;2022-09-09T13:48:07;7.20;;;3.67;;
49962;SDS011;36180;57.678;11.910;2022-09-09T13:50:35;6.32;;;3.72;;
49962;SDS011;36180;57.678;11.910;2022-09-09T13:53:02;4.03;;;3.60;;
49962;SDS011;36180;57.678;11.910;2022-09-09T13:55:31;5.88;;;4.13;;
49962;SDS011;36180;57.678;11.910;2022-09-09T13:57:59;5.43;;;3.70;;
49962;SDS011;36180;57.678;11.910;2022-09-09T14:00:28;6.10;;;3.45;;
49962;SDS011;36180;57.678;11.910;2022-09-09T14:02:56;5.95;;;4.50;;
49962;SDS011;36180;57.678;11.910;2022-09-09T14:05:23;7.65;;;4.05;;
49962;SDS011;36180;57.678;11.910;2022-09-09T14:07:50;4.85;;;3.95;;
49962;SDS011;36180;57.678;11.910;2022-09-09T14:10:17;6.40;;;5.38;;
49962;SDS011;36180;57.678;11.910;2022-09-09T14:12:46;6.03;;;3.92;;
49962;SDS011;36180;57.678;11.910;2022-09-09T14:15:13;8.38;;;4.07;;
49962;SDS011;36180;57.678;11.910;2022-09-09T14:17:41;7.57;;;4.38;;
49962;SDS011;36180;57.678;11.910;2022-09-09T14:20:09;6.53;;;3.97;;
49962;SDS011;36180;57.678;11.910;2022-09-09T14:22:40;9.43;;;3.85;;
49962;SDS011;36180;57.678;11.910;2022-09-09T14:25:07;7.28;;;4.60;;
49962;SDS011;36180;57.678;11.910;2022-09-09T14:27:34;7.90;;;3.53;;
49962;SDS011;36180;57.678;11.910;2022-09-09T14:30:05;6.28;;;3.90;;
49962;SDS011;36180;57.678;11.910;2022-09-09T14:32:33;5.97;;;3.58;;
49962;SDS011;36180;57.678;11.910;2022-09-09T14:35:00;6.85;;;3.90;;
49962;SDS011;36180;57.678;11.910;2022-09-09T14:37:27;5.22;;;3.50;;
49962;SDS011;36180;57.678;11.910;2022-09-09T14:39:56;4.63;;;3.55;;
49962;SDS011;36180;57.678;11.910;2022-09-09T14:42:23;5.35;;;3.50;;
49962;SDS011;36180;57.678;11.910;2022-09-09T14:44:51;5.28;;;3.65;;
49962;SDS011;36180;57.678;11.910;2022-09-09T14:47:19;4.50;;;3.42;;
49962;SDS011;36180;57.678;11.910;2022-09-09T14:49:46;4.93;;;3.42;;
49962;SDS011;36180;57.678;11.910;2022-09-09T14:52:14;6.20;;;3.58;;
49962;SDS011;36180;57.678;11.910;2022-09-09T14:54:42;7.50;;;3.33;;
49962;SDS011;36180;57.678;11.910;2022-09-09T14:57:09;5.00;;;3.65;;
49962;SDS011;36180;57.678;11.910;2022-09-09T14:59:36;3.33;;;3.03;;
49962;SDS011;36180;57.678;11.910;2022-09-09T15:02:03;5.40;;;3.35;;
49962;SDS011;36180;57.678;11.910;2022-09-09T15:04:31;5.40;;;3.05;;
49962;SDS011;36180;57.678;11.910;2022-09-09T15:06:58;3.70;;;2.63;;
49962;SDS011;36180;57.678;11.910;2022-09-09T15:09:25;2.60;;;2.40;;
49962;SDS011;36180;57.678;11.910;2022-09-09T15:11:52;3.40;;;3.10;;
49962;SDS011;36180;57.678;11.910;2022-09-09T15:14:19;4.72;;;2.78;;